Time;durP1;ratioP1;P1;durP2;ratioP2;P2;SDS_P1;SDS_P2;PMS_P1;PMS_P2;Temp;Humidity;BMP_temperature;BMP_pressure;BME280_temperature;BME280_humidity;BME280_pressure;Samples;Min_cycle;Max_cycle;Signal;HPM_P1;HPM_P2
2021/04/03 00:00:15;;;;;;;5.77;5.07;;;;;;;9.35;56.59;96745.28;5136116;27;20189;-62
2021/04/03 00:02:41;;;;;;;7.90;5.70;;;;;;;9.20;57.44;96742.91;5136215;27;20231;-63
2021/04/03 00:05:11;;;;;;;13.30;5.70;;;;;;;9.34;56.78;96744.50;5136174;27;20785;-63
2021/04/03 00:07:37;;;;;;;7.67;5.80;;;;;;;9.22;57.36;96747.97;5135562;27;20178;-60
2021/04/03 00:10:13;;;;;;;13.03;6.27;;;;;;;9.25;56.94;96750.16;5123877;27;20465;-60
2021/04/03 00:12:38;;;;;;;8.13;5.23;;;;;;;9.38;56.05;96752.75;5120394;27;20502;-63
2021/04/03 00:15:05;;;;;;;7.63;5.83;;;;;;;9.04;57.75;96756.47;5136192;27;20488;-61
2021/04/03 00:17:30;;;;;;;6.17;5.57;;;;;;;9.06;56.31;96746.59;5120453;27;20199;-61
2021/04/03 00:19:56;;;;;;;6.87;5.83;;;;;;;8.95;55.87;96752.47;5115040;28;20422;-61
2021/04/03 00:22:23;;;;;;;7.77;6.27;;;;;;;8.77;56.35;96760.16;5115578;27;20234;-60
2021/04/03 00:24:48;;;;;;;7.30;5.30;;;;;;;8.66;56.63;96758.16;5115075;28;20223;-63
2021/04/03 00:27:14;;;;;;;8.03;6.00;;;;;;;8.63;56.25;96755.97;5118226;27;20418;-63
2021/04/03 00:29:40;;;;;;;6.97;5.83;;;;;;;8.58;57.10;96758.38;5135559;27;20671;-63
2021/04/03 00:32:05;;;;;;;7.53;6.33;;;;;;;8.77;56.34;96762.78;5135696;27;20169;-63
2021/04/03 00:34:31;;;;;;;8.50;6.30;;;;;;;8.79;56.22;96757.34;5133569;27;20187;-62
2021/04/03 00:36:56;;;;;;;7.03;6.23;;;;;;;8.70;56.16;96754.13;5135300;27;20251;-61
2021/04/03 00:39:21;;;;;;;7.33;5.83;;;;;;;8.91;55.28;96750.47;5134753;27;20198;-61
2021/04/03 00:41:47;;;;;;;8.13;6.50;;;;;;;9.06;54.23;96743.16;5133199;27;20165;-63
2021/04/03 00:44:12;;;;;;;6.80;6.17;;;;;;;8.57;55.73;96740.25;5114623;28;20176;-60
2021/04/03 00:46:38;;;;;;;8.10;6.03;;;;;;;8.56;56.19;96751.72;5114669;28;20190;-61
2021/04/03 00:49:05;;;;;;;5.97;5.40;;;;;;;8.71;54.21;96745.28;5114167;28;20223;-61
2021/04/03 00:51:31;;;;;;;6.47;5.20;;;;;;;8.88;53.34;96743.81;5114760;28;20264;-63
2021/04/03 00:53:56;;;;;;;6.67;5.93;;;;;;;8.74;52.94;96744.88;5114685;28;20440;-63
2021/04/03 00:56:22;;;;;;;6.67;6.07;;;;;;;8.82;52.57;96746.47;5114884;27;20218;-61
2021/04/03 00:58:47;;;;;;;7.10;5.47;;;;;;;8.83;52.96;96753.31;5116460;27;20280;-63
2021/04/03 01:01:13;;;;;;;6.90;5.70;;;;;;;8.76;54.14;96748.09;5114342;28;20576;-61
2021/04/03 01:03:38;;;;;;;6.67;5.33;;;;;;;8.80;53.06;96744.06;5114598;28;20185;-60
2021/04/03 01:06:05;;;;;;;5.90;5.30;;;;;;;8.51;53.92;96748.91;5114179;28;20258;-63
2021/04/03 01:08:30;;;;;;;6.20;5.40;;;;;;;8.79;52.95;96744.22;5132069;27;20227;-63
2021/04/03 01:10:56;;;;;;;7.77;5.60;;;;;;;8.94;52.24;96745.63;5134344;27;20449;-60
2021/04/03 01:13:43;;;;;;;7.90;6.03;;;;;;;9.00;51.29;96744.81;5114730;27;20205;-63
2021/04/03 01:16:11;;;;;;;11.83;5.70;;;;;;;8.81;52.00;96750.06;5114124;28;20257;-61
2021/04/03 01:18:52;;;;;;;6.23;5.00;;;;;;;8.63;52.24;96736.81;5114583;27;20489;-63
2021/04/03 01:21:22;;;;;;;7.30;5.60;;;;;;;8.85;52.49;96741.63;5114129;28;20418;-63
2021/04/03 01:24:14;;;;;;;9.90;5.70;;;;;;;8.89;52.46;96742.81;5114150;28;20436;-63
2021/04/03 01:26:48;;;;;;;6.60;6.00;;;;;;;8.91;51.20;96742.63;5095357;28;20430;-63
2021/04/03 01:29:28;;;;;;;7.00;5.40;;;;;;;8.66;52.51;96733.81;5113549;28;20471;-61
2021/04/03 01:31:56;;;;;;;9.83;6.20;;;;;;;8.71;53.35;96741.84;5119897;27;20423;-61
2021/04/03 01:34:25;;;;;;;7.73;5.90;;;;;;;8.71;52.72;96734.81;5134582;27;20466;-61
2021/04/03 01:36:57;;;;;;;9.23;5.70;;;;;;;8.82;51.96;96731.53;5134305;27;20407;-63
2021/04/03 01:39:23;;;;;;;6.97;6.13;;;;;;;8.99;52.04;96726.66;5124337;27;20967;-60
2021/04/03 01:41:53;;;;;;;8.50;6.57;;;;;;;9.07;51.84;96732.50;5115242;28;20437;-63
2021/04/03 01:44:33;;;;;;;7.10;5.70;;;;;;;9.13;52.21;96729.03;5114158;28;20441;-63
2021/04/03 01:46:59;;;;;;;8.30;5.70;;;;;;;9.21;51.53;96728.81;5113465;28;20412;-62
2021/04/03 01:49:26;;;;;;;10.83;6.40;;;;;;;8.79;52.27;96737.19;5113713;28;20408;-61
2021/04/03 01:51:53;;;;;;;8.83;6.50;;;;;;;9.03;52.27;96730.47;5124578;28;20426;-63
2021/04/03 01:54:23;;;;;;;9.07;6.97;;;;;;;9.12;52.10;96727.44;5134230;27;20888;-63
2021/04/03 01:56:51;;;;;;;8.97;6.27;;;;;;;9.15;52.30;96731.44;5134597;27;20399;-63
2021/04/03 01:59:17;;;;;;;8.63;5.90;;;;;;;9.27;51.26;96730.59;5132664;28;20978;-63
2021/04/03 02:01:44;;;;;;;10.50;6.17;;;;;;;9.31;51.06;96723.13;5124967;27;20482;-63
2021/04/03 02:04:12;;;;;;;7.50;6.67;;;;;;;9.37;51.68;96721.50;5134095;27;20481;-63
2021/04/03 02:06:41;;;;;;;9.47;5.70;;;;;;;9.38;51.60;96724.69;5132386;27;20543;-61
2021/04/03 02:09:09;;;;;;;9.70;6.40;;;;;;;9.07;52.07;96715.94;5133636;27;20841;-61
2021/04/03 02:11:37;;;;;;;8.80;6.03;;;;;;;9.08;51.94;96720.97;5134187;27;20411;-63
2021/04/03 02:14:04;;;;;;;6.93;5.70;;;;;;;9.15;52.37;96715.69;5127173;27;20495;-63
2021/04/03 02:16:35;;;;;;;8.50;6.50;;;;;;;9.07;52.85;96713.31;5113653;28;20807;-63
2021/04/03 02:19:04;;;;;;;8.00;6.23;;;;;;;9.18;51.93;96716.13;5113002;28;20459;-63
2021/04/03 02:21:31;;;;;;;7.03;6.33;;;;;;;8.88;53.54;96707.13;5115488;27;20408;-60
2021/04/03 02:23:57;;;;;;;6.77;5.50;;;;;;;8.91;53.08;96705.94;5127607;27;20466;-61
2021/04/03 02:26:22;;;;;;;9.50;6.13;;;;;;;9.00;53.51;96712.56;5138103;27;20436;-63
2021/04/03 02:28:52;;;;;;;9.30;5.80;;;;;;;9.02;52.36;96711.31;5132209;27;20436;-63
2021/04/03 02:31:18;;;;;;;6.53;6.00;;;;;;;9.02;52.87;96710.53;5125420;27;20178;-61
2021/04/03 02:33:43;;;;;;;11.43;6.47;;;;;;;8.99;53.09;96716.97;5117562;28;20441;-61
2021/04/03 02:36:09;;;;;;;7.37;5.43;;;;;;;9.11;52.90;96709.28;5115976;28;20536;-63
2021/04/03 02:38:34;;;;;;;8.20;6.00;;;;;;;9.17;52.27;96724.16;5117792;27;20213;-63
2021/04/03 02:41:00;;;;;;;6.50;5.40;;;;;;;9.11;52.46;96709.28;5117241;28;20174;-63
2021/04/03 02:43:40;;;;;;;7.50;5.80;;;;;;;9.17;51.91;96722.34;5121857;27;20175;-63
2021/04/03 02:46:38;;;;;;;9.53;5.60;;;;;;;9.24;51.44;96717.88;5121039;27;20177;-60
2021/04/03 02:49:11;;;;;;;7.80;6.27;;;;;;;9.25;51.02;96721.31;5137031;27;20422;-63
2021/04/03 02:51:43;;;;;;;5.60;5.10;;;;;;;9.08;52.63;96712.31;5133085;27;20628;-62
2021/04/03 02:54:10;;;;;;;8.20;4.87;;;;;;;9.04;52.39;96705.91;5136248;27;20428;-63
2021/04/03 02:56:41;;;;;;;7.27;5.23;;;;;;;9.05;52.43;96720.59;5136434;27;20432;-60
2021/04/03 02:59:22;;;;;;;9.07;5.63;;;;;;;9.07;51.93;96718.56;5136781;27;20541;-63
2021/04/03 03:01:49;;;;;;;6.43;5.10;;;;;;;9.00;52.57;96733.50;5137523;27;20899;-60
2021/04/03 03:04:17;;;;;;;5.73;5.20;;;;;;;8.99;52.82;96734.50;5136485;27;20506;-61
2021/04/03 03:06:47;;;;;;;6.30;5.70;;;;;;;8.99;53.04;96729.28;5137090;27;20415;-60
2021/04/03 03:09:15;;;;;;;5.30;4.80;;;;;;;9.01;52.07;96722.81;5136645;27;20947;-63
2021/04/03 03:11:44;;;;;;;7.63;5.70;;;;;;;8.91;53.06;96722.44;5137153;27;20407;-60
2021/04/03 03:14:16;;;;;;;5.60;5.00;;;;;;;9.08;52.73;96728.03;5136969;27;20399;-60
2021/04/03 03:16:45;;;;;;;5.90;5.30;;;;;;;8.81;52.83;96729.94;5137029;27;20414;-60
2021/04/03 03:19:12;;;;;;;7.03;5.50;;;;;;;8.50;53.46;96729.00;5135580;27;20515;-63
2021/04/03 03:21:38;;;;;;;5.83;5.23;;;;;;;8.61;53.25;96729.16;5137021;27;20412;-63
2021/04/03 03:24:08;;;;;;;5.77;5.27;;;;;;;8.50;53.98;96729.78;5136863;27;20479;-62
2021/04/03 03:26:36;;;;;;;9.00;4.80;;;;;;;8.11;55.99;96733.19;5136909;27;20409;-63
2021/04/03 03:29:08;;;;;;;9.00;5.07;;;;;;;8.34;54.65;96732.81;5136359;27;20424;-60
2021/04/03 03:31:33;;;;;;;7.00;5.23;;;;;;;8.37;55.57;96735.00;5136883;27;20778;-63
2021/04/03 03:33:59;;;;;;;5.83;5.27;;;;;;;8.47;54.24;96738.03;5117919;27;20434;-63
2021/04/03 03:36:27;;;;;;;8.67;4.93;;;;;;;8.50;54.21;96729.78;5116144;28;20181;-60
2021/04/03 03:38:54;;;;;;;8.03;4.70;;;;;;;8.31;54.08;96730.63;5115439;28;20472;-60
2021/04/03 03:41:22;;;;;;;11.03;5.27;;;;;;;8.25;54.58;96729.59;5115854;28;20406;-63
2021/04/03 03:43:48;;;;;;;7.03;5.20;;;;;;;7.75;56.10;96729.34;5115747;28;20457;-60
2021/04/03 03:46:13;;;;;;;6.03;5.33;;;;;;;7.64;55.58;96728.09;5125316;27;20508;-63
2021/04/03 03:48:39;;;;;;;6.20;5.60;;;;;;;6.20;61.64;96737.81;5118265;27;20201;-60
2021/04/03 03:51:04;;;;;;;10.07;5.40;;;;;;;6.01;63.24;96737.66;5115710;28;20567;-63
2021/04/03 03:53:30;;;;;;;7.87;5.33;;;;;;;5.67;64.63;96738.31;5114512;28;20269;-62
2021/04/03 03:55:55;;;;;;;6.17;5.53;;;;;;;6.07;63.71;96740.31;5115832;28;20178;-60
2021/04/03 03:58:21;;;;;;;5.97;5.10;;;;;;;6.18;63.47;96739.81;5115047;28;20203;-60
2021/04/03 04:00:47;;;;;;;8.17;4.60;;;;;;;5.89;64.60;96737.34;5115495;28;20514;-60
2021/04/03 04:03:13;;;;;;;7.30;4.60;;;;;;;6.35;63.69;96739.53;5130973;27;20506;-60
2021/04/03 04:05:39;;;;;;;6.50;4.83;;;;;;;6.21;63.32;96742.03;5135908;27;20404;-62
2021/04/03 04:08:04;;;;;;;6.67;5.00;;;;;;;6.57;62.36;96739.28;5121405;27;20182;-60
2021/04/03 04:10:30;;;;;;;6.27;5.17;;;;;;;6.81;60.90;96745.88;5115606;27;20260;-63
2021/04/03 04:12:55;;;;;;;6.53;5.17;;;;;;;6.62;62.08;96743.94;5115299;28;20167;-62
2021/04/03 04:15:21;;;;;;;8.00;5.27;;;;;;;6.31;62.59;96739.09;5115181;28;20232;-63
2021/04/03 04:17:46;;;;;;;7.80;4.93;;;;;;;5.52;65.03;96740.16;5114852;28;20209;-62
2021/04/03 04:20:12;;;;;;;8.03;4.90;;;;;;;5.25;67.47;96743.47;5115098;28;20651;-62
2021/04/03 04:22:38;;;;;;;10.27;4.70;;;;;;;5.76;65.85;96745.00;5126857;27;20185;-60
2021/04/03 04:25:04;;;;;;;8.17;5.67;;;;;;;6.19;64.35;96746.66;5133021;27;20410;-62
2021/04/03 04:27:29;;;;;;;5.30;4.80;;;;;;;6.41;64.47;96742.19;5114635;28;20169;-60
2021/04/03 04:29:55;;;;;;;6.00;5.40;;;;;;;6.03;64.85;96752.09;5114803;28;20844;-60
2021/04/03 04:32:20;;;;;;;9.27;5.90;;;;;;;6.39;63.61;96757.25;5114870;28;20178;-62
2021/04/03 04:34:46;;;;;;;5.00;4.50;;;;;;;6.76;62.25;96758.66;5114805;28;20188;-62
2021/04/03 04:37:11;;;;;;;5.70;5.13;;;;;;;6.18;63.44;96759.84;5114423;28;20222;-62
2021/04/03 04:39:37;;;;;;;7.17;4.93;;;;;;;6.37;63.91;96761.03;5114730;28;20189;-60
2021/04/03 04:42:05;;;;;;;6.53;5.17;;;;;;;6.14;64.66;96767.25;5123133;27;20595;-60
2021/04/03 04:44:31;;;;;;;11.80;4.70;;;;;;;6.07;64.47;96765.59;5114308;28;20169;-63
2021/04/03 04:46:56;;;;;;;7.40;5.37;;;;;;;5.95;64.43;96767.91;5129790;27;20834;-62
2021/04/03 04:49:22;;;;;;;10.53;5.20;;;;;;;5.61;67.01;96775.56;5134911;27;20225;-60
2021/04/03 04:51:47;;;;;;;6.47;4.57;;;;;;;5.93;65.04;96772.50;5135026;27;20168;-60
2021/04/03 04:54:12;;;;;;;7.40;4.90;;;;;;;6.45;63.12;96777.34;5135042;27;20559;-62
2021/04/03 04:56:38;;;;;;;6.63;4.80;;;;;;;6.67;62.95;96776.28;5134396;27;20180;-63
2021/04/03 04:59:03;;;;;;;8.30;5.03;;;;;;;6.78;62.32;96774.94;5134354;27;20288;-60
2021/04/03 05:01:28;;;;;;;5.77;4.97;;;;;;;6.84;61.14;96782.03;5134907;27;20175;-60
2021/04/03 05:03:54;;;;;;;8.20;5.23;;;;;;;6.77;62.52;96787.22;5134857;27;20635;-60
2021/04/03 05:06:19;;;;;;;5.50;4.60;;;;;;;6.53;62.71;96781.63;5135075;27;20169;-60
2021/04/03 05:08:44;;;;;;;9.20;4.43;;;;;;;6.29;63.23;96782.84;5134564;27;20190;-63
2021/04/03 05:11:10;;;;;;;6.20;4.60;;;;;;;5.93;65.56;96785.53;5132938;27;20205;-62
2021/04/03 05:13:35;;;;;;;8.00;5.53;;;;;;;5.21;67.84;96789.09;5134637;27;20169;-62
2021/04/03 05:16:01;;;;;;;6.50;4.80;;;;;;;5.17;69.50;96787.84;5129233;27;20235;-60
2021/04/03 05:18:26;;;;;;;8.50;5.53;;;;;;;5.35;68.79;96787.44;5113653;28;20224;-60
2021/04/03 05:20:51;;;;;;;7.00;5.10;;;;;;;5.35;68.11;96785.66;5114304;28;20171;-59
2021/04/03 05:23:20;;;;;;;7.90;5.23;;;;;;;5.56;67.22;96790.13;5114188;28;20633;-59
2021/04/03 05:25:45;;;;;;;6.53;5.40;;;;;;;5.57;68.20;96794.31;5113927;28;20263;-60
2021/04/03 05:28:13;;;;;;;8.63;4.63;;;;;;;5.68;67.51;96802.50;5113560;28;20511;-60
2021/04/03 05:30:39;;;;;;;10.00;4.83;;;;;;;6.23;66.15;96800.03;5114991;27;20588;-63
2021/04/03 05:33:04;;;;;;;7.67;4.90;;;;;;;6.59;64.65;96802.56;5114076;28;20496;-62
2021/04/03 05:35:29;;;;;;;5.50;4.43;;;;;;;6.52;63.64;96804.31;5116529;27;20189;-62
2021/04/03 05:37:55;;;;;;;8.30;4.70;;;;;;;6.80;63.07;96807.72;5133887;27;20221;-60
2021/04/03 05:40:20;;;;;;;6.50;4.60;;;;;;;6.88;61.95;96812.81;5148525;27;20269;-62
2021/04/03 05:42:46;;;;;;;6.00;4.80;;;;;;;7.07;62.01;96808.69;5154868;27;20178;-60
2021/04/03 05:45:18;;;;;;;6.60;4.80;;;;;;;6.52;63.54;96809.53;5140100;27;20733;-62
2021/04/03 05:47:45;;;;;;;6.57;4.70;;;;;;;6.72;62.42;96801.84;5113360;28;20456;-60
2021/04/03 05:50:11;;;;;;;5.10;4.40;;;;;;;7.05;61.25;96808.88;5114715;28;20427;-62
2021/04/03 05:52:37;;;;;;;7.40;5.20;;;;;;;6.90;62.06;96820.44;5127289;28;20424;-63
2021/04/03 05:55:04;;;;;;;4.63;4.20;;;;;;;7.09;62.43;96810.13;5132894;27;20410;-63
2021/04/03 05:57:30;;;;;;;8.17;4.70;;;;;;;7.37;60.13;96820.53;5116702;28;20411;-60
2021/04/03 05:59:55;;;;;;;6.60;4.50;;;;;;;7.57;59.84;96824.03;5123442;27;20433;-60
2021/04/03 06:02:20;;;;;;;6.90;5.00;;;;;;;6.96;60.87;96820.47;5135948;27;20412;-61
2021/04/03 06:04:46;;;;;;;7.60;4.53;;;;;;;6.78;62.96;96829.78;5117842;27;20176;-59
2021/04/03 06:07:12;;;;;;;6.17;4.40;;;;;;;7.24;61.76;96828.28;5117563;28;20262;-60
2021/04/03 06:09:37;;;;;;;6.70;4.00;;;;;;;7.49;60.31;96832.03;5117102;27;20194;-62
2021/04/03 06:12:03;;;;;;;6.50;4.00;;;;;;;7.69;59.66;96837.31;5136974;27;20182;-60
2021/04/03 06:14:35;;;;;;;8.17;3.93;;;;;;;7.79;59.43;96830.72;5138581;27;20193;-62
2021/04/03 06:17:01;;;;;;;7.60;3.90;;;;;;;7.92;58.46;96837.81;5137738;27;20766;-60
2021/04/03 06:19:26;;;;;;;4.97;4.00;;;;;;;8.09;57.87;96841.69;5136043;27;20471;-62
2021/04/03 06:21:52;;;;;;;8.03;4.37;;;;;;;8.18;56.42;96841.31;5127543;27;20229;-59
2021/04/03 06:24:37;;;;;;;6.10;4.13;;;;;;;7.52;59.68;96841.28;5134090;27;20179;-59
2021/04/03 06:27:09;;;;;;;5.87;3.53;;;;;;;7.73;60.00;96838.56;5117272;28;20581;-62
2021/04/03 06:29:38;;;;;;;8.80;3.93;;;;;;;7.72;58.72;96837.75;5117523;28;20436;-62
2021/04/03 06:32:08;;;;;;;5.37;3.50;;;;;;;7.95;58.39;96848.69;5117310;28;20417;-60
2021/04/03 06:34:34;;;;;;;6.20;3.50;;;;;;;8.08;57.81;96846.09;5131879;27;20415;-59
2021/04/03 06:37:01;;;;;;;5.40;3.60;;;;;;;8.22;57.17;96845.13;5137550;27;20968;-60
2021/04/03 06:39:27;;;;;;;4.17;3.80;;;;;;;8.19;57.00;96849.94;5132806;27;20552;-59
2021/04/03 06:41:53;;;;;;;6.73;3.97;;;;;;;8.39;56.36;96850.03;5124105;27;20508;-62
2021/04/03 06:44:19;;;;;;;6.43;4.10;;;;;;;8.05;56.81;96843.88;5117278;28;20411;-62
2021/04/03 06:46:46;;;;;;;7.80;4.10;;;;;;;8.19;58.44;96849.94;5113030;28;20200;-61
2021/04/03 06:49:13;;;;;;;5.20;4.30;;;;;;;8.46;56.37;96843.78;5126549;27;20188;-61
2021/04/03 06:51:39;;;;;;;4.30;3.90;;;;;;;8.49;56.31;96845.19;5133888;27;20781;-61
2021/04/03 06:54:07;;;;;;;4.17;3.77;;;;;;;8.44;56.39;96845.81;5128075;27;20433;-60
2021/04/03 06:56:34;;;;;;;8.77;4.60;;;;;;;8.48;55.77;96844.38;5113374;28;20462;-61
2021/04/03 06:59:05;;;;;;;7.00;4.10;;;;;;;8.42;57.98;96844.38;5112354;28;20466;-62
2021/04/03 07:01:55;;;;;;;7.83;4.00;;;;;;;8.03;59.13;96850.31;5113237;28;20898;-61
2021/04/03 07:04:27;;;;;;;5.27;3.80;;;;;;;8.09;58.85;96857.38;5116631;28;20411;-59
2021/04/03 07:06:54;;;;;;;4.43;3.27;;;;;;;8.45;57.62;96855.28;5117373;27;20422;-59
2021/04/03 07:09:20;;;;;;;4.73;3.67;;;;;;;8.41;57.75;96851.44;5132024;27;20431;-62
2021/04/03 07:11:52;;;;;;;7.83;4.00;;;;;;;8.35;57.36;96848.81;5119816;27;20412;-59
2021/04/03 07:14:19;;;;;;;5.73;4.23;;;;;;;8.62;57.34;96856.50;5098223;28;20411;-62
2021/04/03 07:16:48;;;;;;;6.27;3.80;;;;;;;8.66;57.37;96859.53;5116375;28;20454;-61
2021/04/03 07:19:15;;;;;;;8.03;4.20;;;;;;;8.59;57.65;96862.13;5115947;27;20551;-59
2021/04/03 07:21:42;;;;;;;3.90;3.60;;;;;;;8.64;55.35;96861.53;5116427;28;20494;-59
2021/04/03 07:24:10;;;;;;;4.03;3.60;;;;;;;8.82;54.90;96856.50;5117502;27;20424;-60
2021/04/03 07:26:38;;;;;;;6.10;3.80;;;;;;;8.87;56.37;96861.94;5116382;28;20433;-60
2021/04/03 07:29:03;;;;;;;6.00;3.90;;;;;;;8.69;56.10;96864.34;5115727;28;20461;-61
2021/04/03 07:31:41;;;;;;;4.20;3.80;;;;;;;8.59;56.50;96861.34;5116705;28;20433;-59
2021/04/03 07:34:07;;;;;;;5.67;3.93;;;;;;;8.52;58.04;96870.97;5116148;28;20166;-62
2021/04/03 07:36:36;;;;;;;4.03;3.50;;;;;;;8.80;55.84;96858.50;5116006;28;20431;-61
2021/04/03 07:39:04;;;;;;;5.90;4.17;;;;;;;8.96;55.99;96868.59;5124578;27;20521;-59
2021/04/03 07:41:40;;;;;;;4.73;3.83;;;;;;;9.11;56.25;96871.81;5116101;28;20405;-61
2021/04/03 07:44:13;;;;;;;5.13;3.53;;;;;;;8.70;56.60;96877.25;5115958;28;20414;-61
2021/04/03 07:46:44;;;;;;;3.97;3.10;;;;;;;9.03;54.61;96869.38;5115837;28;20991;-60
2021/04/03 07:49:11;;;;;;;7.60;3.67;;;;;;;9.12;53.87;96878.66;5115565;28;20436;-62
2021/04/03 07:51:39;;;;;;;4.77;3.57;;;;;;;9.08;53.78;96877.44;5115718;28;20413;-61
2021/04/03 07:54:05;;;;;;;4.33;2.97;;;;;;;9.09;52.62;96877.25;5132007;27;20774;-59
2021/04/03 07:56:50;;;;;;;3.73;3.00;;;;;;;8.77;55.04;96887.75;5136274;27;20413;-61
2021/04/03 07:59:15;;;;;;;5.93;3.77;;;;;;;8.80;53.85;96880.28;5135903;27;20202;-59
2021/04/03 08:01:41;;;;;;;7.80;3.40;;;;;;;8.89;53.60;96879.06;5136278;27;20763;-59
2021/04/03 08:04:08;;;;;;;3.23;2.60;;;;;;;8.60;55.44;96883.88;5136211;27;20200;-61
2021/04/03 08:06:41;;;;;;;4.03;3.00;;;;;;;8.40;55.48;96893.53;5136208;27;20175;-61
2021/04/03 08:09:12;;;;;;;6.90;3.10;;;;;;;8.17;56.69;96904.31;5119330;27;20468;-61
2021/04/03 08:11:38;;;;;;;6.10;3.10;;;;;;;8.26;56.15;96903.19;5130015;27;20429;-62
2021/04/03 08:14:03;;;;;;;3.63;2.80;;;;;;;8.29;56.95;96908.81;5135794;27;20408;-59
2021/04/03 08:16:32;;;;;;;6.10;3.20;;;;;;;8.63;55.60;96910.47;5135844;27;20176;-60
2021/04/03 08:18:59;;;;;;;4.10;3.70;;;;;;;8.63;55.55;96913.09;5134987;27;20572;-61
2021/04/03 08:21:27;;;;;;;6.10;3.30;;;;;;;9.04;53.74;96912.94;5135074;27;20411;-59
2021/04/03 08:23:55;;;;;;;4.87;3.67;;;;;;;9.00;55.47;96911.72;5121487;27;20420;-60
2021/04/03 08:26:23;;;;;;;4.30;3.67;;;;;;;8.94;55.44;96917.75;5115151;28;20440;-62
2021/04/03 08:28:49;;;;;;;6.10;3.10;;;;;;;9.15;54.80;96922.78;5114634;28;20434;-62
2021/04/03 08:31:15;;;;;;;5.37;3.37;;;;;;;9.27;53.93;96923.81;5114989;28;20437;-60
2021/04/03 08:33:41;;;;;;;8.90;4.63;;;;;;;9.34;54.42;96929.84;5115520;28;20410;-61
2021/04/03 08:36:14;;;;;;;5.97;4.10;;;;;;;9.16;54.31;96934.91;5114908;28;20423;-59
2021/04/03 08:38:43;;;;;;;3.80;2.90;;;;;;;9.06;53.58;96926.63;5115571;27;20226;-59
2021/04/03 08:41:09;;;;;;;3.90;2.47;;;;;;;9.25;53.83;96929.25;5113635;28;20417;-59
2021/04/03 08:43:34;;;;;;;4.83;3.10;;;;;;;9.59;50.96;96928.19;5127676;27;20427;-62
2021/04/03 08:46:08;;;;;;;3.13;2.27;;;;;;;9.60;50.05;96929.00;5115557;27;20424;-62
2021/04/03 08:48:35;;;;;;;3.30;2.67;;;;;;;9.50;50.43;96939.91;5114153;28;20205;-60
2021/04/03 08:51:02;;;;;;;3.53;2.87;;;;;;;9.42;51.60;96944.56;5114644;27;20968;-59
2021/04/03 08:53:39;;;;;;;5.33;3.17;;;;;;;9.28;51.70;96941.94;5114610;28;20410;-62
2021/04/03 08:56:05;;;;;;;5.27;2.47;;;;;;;9.15;52.60;96941.94;5114581;28;20434;-60
2021/04/03 08:58:31;;;;;;;2.80;2.30;;;;;;;9.19;53.41;96937.09;5113861;28;20451;-62
2021/04/03 09:00:57;;;;;;;5.60;2.70;;;;;;;9.07;54.08;96929.06;5135107;27;20400;-62
2021/04/03 09:03:23;;;;;;;3.20;2.67;;;;;;;9.22;52.85;96936.72;5134987;27;20198;-61
2021/04/03 09:05:49;;;;;;;3.00;2.80;;;;;;;9.72;52.10;96937.84;5135231;27;20493;-61
2021/04/03 09:08:22;;;;;;;3.43;2.87;;;;;;;9.41;53.02;96942.94;5119124;27;20194;-61
2021/04/03 09:10:59;;;;;;;2.67;2.33;;;;;;;9.32;53.52;96937.09;5116231;27;20397;-59
2021/04/03 09:13:35;;;;;;;5.30;2.80;;;;;;;9.68;53.29;96942.69;5124018;27;20428;-60
2021/04/03 09:16:10;;;;;;;4.73;2.73;;;;;;;9.77;51.56;96938.03;5119885;27;20909;-60
2021/04/03 09:18:37;;;;;;;3.10;2.90;;;;;;;9.55;52.74;96947.97;5117612;27;20488;-61
2021/04/03 09:21:02;;;;;;;7.23;2.93;;;;;;;9.90;50.45;96949.31;5134930;27;20489;-60
2021/04/03 09:23:28;;;;;;;4.07;2.80;;;;;;;10.19;52.07;96945.41;5134689;27;20918;-59
2021/04/03 09:26:02;;;;;;;6.20;2.73;;;;;;;10.38;50.44;96936.63;5134786;27;20199;-59
2021/04/03 09:28:37;;;;;;;3.50;2.50;;;;;;;10.36;48.38;96955.22;5134136;27;20188;-59
2021/04/03 09:31:03;;;;;;;4.20;3.03;;;;;;;10.79;45.66;96954.56;5134172;27;20757;-59
2021/04/03 09:33:29;;;;;;;5.60;3.07;;;;;;;10.75;46.80;96951.56;5117897;27;20904;-59
2021/04/03 09:36:12;;;;;;;2.43;2.23;;;;;;;9.88;49.84;96953.97;5116693;27;20481;-60
2021/04/03 09:38:38;;;;;;;2.53;2.33;;;;;;;10.16;51.96;96970.25;5129069;27;20476;-59
2021/04/03 09:41:24;;;;;;;4.00;2.77;;;;;;;10.45;47.85;96953.16;5130882;27;20413;-60
2021/04/03 09:43:50;;;;;;;4.07;2.43;;;;;;;11.12;46.68;96949.91;5130713;27;20540;-60
2021/04/03 09:46:15;;;;;;;4.30;2.57;;;;;;;11.34;45.45;96940.63;5120391;27;20426;-59
2021/04/03 09:48:41;;;;;;;4.20;2.33;;;;;;;11.39;45.89;96953.94;5109202;28;20530;-59
2021/04/03 09:51:08;;;;;;;5.83;3.03;;;;;;;11.62;45.00;96961.19;5117803;28;20185;-61
2021/04/03 09:53:33;;;;;;;2.93;2.30;;;;;;;11.82;44.12;96957.38;5130736;27;20909;-60
2021/04/03 09:55:59;;;;;;;2.77;2.37;;;;;;;11.23;45.52;96957.88;5130897;27;20413;-60
2021/04/03 09:58:25;;;;;;;4.17;3.00;;;;;;;10.97;47.59;96960.72;5130586;27;20682;-60
2021/04/03 10:00:50;;;;;;;5.13;3.03;;;;;;;11.09;49.85;96961.66;5120954;28;20755;-60
2021/04/03 10:03:16;;;;;;;5.63;2.90;;;;;;;10.94;45.29;96955.09;5110238;28;20205;-60
2021/04/03 10:05:41;;;;;;;3.50;2.53;;;;;;;10.94;47.08;96941.94;5110167;28;20256;-60
2021/04/03 10:08:06;;;;;;;3.23;2.50;;;;;;;11.34;44.24;96946.66;5109821;28;20180;-60
2021/04/03 10:10:32;;;;;;;3.50;1.97;;;;;;;11.64;42.80;96946.81;5110136;28;20196;-59
2021/04/03 10:12:57;;;;;;;3.03;2.30;;;;;;;11.74;44.59;96956.88;5109123;28;20631;-59
2021/04/03 10:15:23;;;;;;;2.93;2.60;;;;;;;11.67;43.64;96946.41;5109973;28;20257;-60
2021/04/03 10:17:49;;;;;;;3.17;2.13;;;;;;;11.86;41.43;96955.94;5110175;28;21600;-59
2021/04/03 10:20:15;;;;;;;3.17;2.87;;;;;;;11.68;44.04;96952.47;5109833;28;20197;-61
2021/04/03 10:22:40;;;;;;;4.97;2.90;;;;;;;11.97;43.78;96962.31;5115714;28;20417;-59
2021/04/03 10:25:06;;;;;;;4.57;2.43;;;;;;;12.12;42.89;96953.00;5129803;27;20422;-60
2021/04/03 10:27:32;;;;;;;6.07;2.70;;;;;;;12.24;43.89;96953.06;5123687;27;20177;-59
2021/04/03 10:29:57;;;;;;;4.83;2.90;;;;;;;12.81;42.04;96957.78;5114447;27;20450;-60
2021/04/03 10:32:23;;;;;;;3.80;2.83;;;;;;;12.97;44.68;96956.34;5109707;28;20169;-60
2021/04/03 10:34:49;;;;;;;3.83;2.70;;;;;;;12.90;41.52;96955.66;5109849;28;20170;-61
2021/04/03 10:37:14;;;;;;;3.47;2.10;;;;;;;12.62;41.90;96963.34;5108969;28;20418;-60
2021/04/03 10:39:40;;;;;;;4.90;3.47;;;;;;;12.32;43.22;96964.09;5129896;28;20236;-60
2021/04/03 10:42:07;;;;;;;4.03;3.27;;;;;;;12.63;42.00;96967.59;5126858;27;20173;-57
2021/04/03 10:44:32;;;;;;;2.90;2.70;;;;;;;12.23;41.79;96965.44;5112655;28;20411;-58
2021/04/03 10:46:58;;;;;;;4.47;3.23;;;;;;;12.78;41.47;96965.34;5113152;28;20496;-58
2021/04/03 10:49:23;;;;;;;3.87;2.87;;;;;;;12.41;42.76;96967.22;5112816;28;20711;-59
2021/04/03 10:51:49;;;;;;;3.80;2.87;;;;;;;12.48;43.38;96961.91;5113363;28;20266;-58
2021/04/03 10:54:17;;;;;;;5.17;2.80;;;;;;;12.85;42.62;96961.59;5117052;27;20169;-62
2021/04/03 10:56:43;;;;;;;5.10;2.67;;;;;;;12.74;41.73;96959.72;5131236;27;20701;-68
2021/04/03 10:59:08;;;;;;;4.30;3.10;;;;;;;12.58;41.48;96965.59;5127893;27;20469;-64
2021/04/03 11:01:33;;;;;;;3.20;2.90;;;;;;;12.18;42.04;96965.28;5133309;27;20230;-62
2021/04/03 11:03:59;;;;;;;7.43;3.40;;;;;;;12.41;43.38;96961.97;5133427;27;20259;-64
2021/04/03 11:06:24;;;;;;;4.67;3.33;;;;;;;12.50;43.32;96960.63;5133575;27;20180;-64
2021/04/03 11:08:50;;;;;;;3.13;2.57;;;;;;;12.49;42.05;96966.13;5131953;27;20219;-65
2021/04/03 11:11:15;;;;;;;5.87;3.00;;;;;;;12.54;42.25;96961.81;5122572;27;20265;-62
2021/04/03 11:13:41;;;;;;;5.10;3.10;;;;;;;12.92;41.52;96974.66;5133139;27;20870;-64
2021/04/03 11:16:06;;;;;;;3.27;2.93;;;;;;;13.16;42.68;96966.63;5133423;27;20172;-62
2021/04/03 11:18:33;;;;;;;4.60;3.30;;;;;;;12.60;40.24;96958.28;5133094;27;20461;-65
2021/04/03 11:20:59;;;;;;;4.13;3.13;;;;;;;13.28;40.98;96964.81;5133429;27;20176;-65
2021/04/03 11:23:24;;;;;;;4.50;3.00;;;;;;;13.47;38.98;96957.59;5121106;27;20480;-63
2021/04/03 11:25:50;;;;;;;4.93;2.80;;;;;;;13.01;40.48;96960.13;5120649;27;20429;-64
2021/04/03 11:28:15;;;;;;;4.53;3.07;;;;;;;13.03;39.84;96952.81;5132795;27;20249;-63
2021/04/03 11:30:41;;;;;;;3.17;2.80;;;;;;;13.07;41.83;96960.06;5120546;27;20168;-64
2021/04/03 11:33:06;;;;;;;5.23;2.90;;;;;;;12.98;41.34;96963.22;5133235;27;20201;-63
2021/04/03 11:35:32;;;;;;;3.50;2.30;;;;;;;12.76;41.92;96955.03;5132969;27;20173;-63
2021/04/03 11:37:58;;;;;;;6.03;3.10;;;;;;;12.87;41.04;96954.25;5132076;27;20556;-63
2021/04/03 11:40:23;;;;;;;5.63;2.80;;;;;;;12.36;39.57;96961.84;5130856;27;20880;-64